createdAt,value
2018-04-24T00:01:45.488Z,7.27
2018-04-24T00:04:14.083Z,7.87
2018-04-24T00:06:42.685Z,6.67
2018-04-24T00:09:11.082Z,7.27
2018-04-24T00:11:39.918Z,6.83
2018-04-24T00:14:08.641Z,7.00
2018-04-24T00:16:37.352Z,7.17
2018-04-24T00:19:06.262Z,7.30
2018-04-24T00:21:34.702Z,7.63
2018-04-24T00:24:03.370Z,6.90
2018-04-24T00:26:32.606Z,7.77
2018-04-24T00:29:01.399Z,7.03
2018-04-24T00:31:29.888Z,6.80
2018-04-24T00:33:58.467Z,6.90
2018-04-24T00:36:27.052Z,7.30
2018-04-24T00:38:55.487Z,6.87
2018-04-24T00:41:24.477Z,7.10
2018-04-24T00:43:53.355Z,7.40
2018-04-24T00:46:22.091Z,7.80
2018-04-24T00:48:50.644Z,7.20
2018-04-24T00:51:19.112Z,7.40
2018-04-24T00:53:47.619Z,7.23
2018-04-24T00:56:16.106Z,6.70
2018-04-24T00:58:44.672Z,8.23
2018-04-24T01:01:13.374Z,7.87
2018-04-24T01:03:42.183Z,6.97
2018-04-24T01:06:10.747Z,7.10
2018-04-24T01:08:39.358Z,7.13
2018-04-24T01:11:07.889Z,7.63
2018-04-24T01:13:36.319Z,8.70
2018-04-24T01:16:04.873Z,6.80
2018-04-24T01:18:33.495Z,7.00
2018-04-24T01:21:02.266Z,7.27
2018-04-24T01:23:30.794Z,7.37
2018-04-24T01:25:59.648Z,8.00
2018-04-24T01:28:28.370Z,7.40
2018-04-24T01:30:56.988Z,7.47
2018-04-24T01:33:25.584Z,7.77
2018-04-24T01:35:54.039Z,7.90
2018-04-24T01:38:22.510Z,7.40
2018-04-24T01:40:53.955Z,6.70
2018-04-24T01:43:22.551Z,7.83
2018-04-24T01:45:51.034Z,7.30
2018-04-24T01:48:19.721Z,7.57
2018-04-24T01:50:48.624Z,7.47
2018-04-24T01:53:17.031Z,7.90
2018-04-24T01:55:45.612Z,6.50
2018-04-24T01:58:14.360Z,6.50
2018-04-24T02:00:44.012Z,7.63
2018-04-24T02:03:12.523Z,6.43
2018-04-24T02:05:41.996Z,6.50
2018-04-24T02:08:11.116Z,6.27
2018-04-24T02:10:39.648Z,6.33
2018-04-24T02:13:08.230Z,7.03
2018-04-24T02:15:36.747Z,6.70
2018-04-24T02:18:05.411Z,7.40
2018-04-24T02:20:33.931Z,6.40
2018-04-24T02:23:02.343Z,5.73
2018-04-24T02:25:30.863Z,6.57
2018-04-24T02:27:59.525Z,7.07
2018-04-24T02:30:28.109Z,6.87
2018-04-24T02:32:56.741Z,6.50
2018-04-24T02:35:25.640Z,6.90
2018-04-24T02:37:54.276Z,6.47
2018-04-24T02:40:22.894Z,6.47
2018-04-24T02:42:51.288Z,6.67
2018-04-24T02:45:20.102Z,6.57
2018-04-24T02:47:48.651Z,7.50
2018-04-24T02:50:17.166Z,6.27
2018-04-24T02:52:45.758Z,6.80
2018-04-24T02:56:13.464Z,6.57
2018-04-24T02:58:42.083Z,7.10
2018-04-24T03:01:10.914Z,6.63
2018-04-24T03:03:39.490Z,6.83
2018-04-24T03:06:08.038Z,6.50
2018-04-24T03:08:36.450Z,7.40
2018-04-24T03:11:04.936Z,6.10
2018-04-24T03:13:33.464Z,6.87
2018-04-24T03:16:02.151Z,6.50
2018-04-24T03:18:30.744Z,6.93
2018-04-24T03:20:59.487Z,6.80
2018-04-24T03:23:28.052Z,6.50
2018-04-24T03:32:44.330Z,6.10
2018-04-24T03:35:13.120Z,7.10
2018-04-24T03:37:42.285Z,7.17
2018-04-24T03:40:10.971Z,7.17
2018-04-24T03:42:39.552Z,7.23
2018-04-24T03:45:08.090Z,7.60
2018-04-24T03:47:36.980Z,7.10
2018-04-24T03:50:05.695Z,6.93
2018-04-24T03:52:34.287Z,7.23
2018-04-24T03:55:02.796Z,8.07
2018-04-24T03:57:31.230Z,7.60
2018-04-24T03:59:59.768Z,7.40
2018-04-24T04:05:24.182Z,6.93
2018-04-24T04:07:52.774Z,7.67
2018-04-24T04:10:21.379Z,7.97
2018-04-24T04:12:51.214Z,8.10
2018-04-24T04:15:21.839Z,7.93
2018-04-24T04:20:08.339Z,7.70
2018-04-24T04:24:46.016Z,7.50
2018-04-24T04:27:14.628Z,8.47
2018-04-24T04:29:43.628Z,8.80
2018-04-24T04:32:12.185Z,10.47
2018-04-24T04:34:40.695Z,9.53
2018-04-24T04:37:09.312Z,8.80
2018-04-24T04:39:38.192Z,10.30
2018-04-24T04:42:06.979Z,9.37
2018-04-24T04:44:35.520Z,9.27
2018-04-24T04:47:04.891Z,9.67
2018-04-24T04:49:33.748Z,9.40
2018-04-24T04:52:02.365Z,10.13
2018-04-24T04:54:32.647Z,9.70
2018-04-24T04:57:02.432Z,8.57
2018-04-24T04:59:33.907Z,9.60
2018-04-24T05:02:05.255Z,9.30
2018-04-24T05:04:34.698Z,9.33
2018-04-24T05:07:07.010Z,9.80
2018-04-24T05:09:36.102Z,9.13
2018-04-24T05:12:04.723Z,8.70
2018-04-24T05:14:33.272Z,9.17
2018-04-24T05:17:01.864Z,9.77
2018-04-24T05:19:30.347Z,9.77
2018-04-24T05:21:58.855Z,9.27
2018-04-24T05:24:27.683Z,10.03
2018-04-24T05:26:56.412Z,9.77
2018-04-24T05:29:25.315Z,8.90
2018-04-24T05:31:53.979Z,9.10
2018-04-24T05:34:22.637Z,9.67
2018-04-24T05:36:51.207Z,8.73
2018-04-24T05:39:19.706Z,10.00
2018-04-24T05:41:48.557Z,9.67
2018-04-24T05:44:17.413Z,9.90
2018-04-24T05:46:46.113Z,9.00
2018-04-24T05:49:14.975Z,9.60
2018-04-24T05:51:43.710Z,9.50
2018-04-24T05:54:12.281Z,9.07
2018-04-24T05:56:40.867Z,10.70
2018-04-24T05:59:09.966Z,9.10
2018-04-24T06:01:38.619Z,10.27
2018-04-24T06:04:07.724Z,10.10
2018-04-24T06:06:36.260Z,9.93
2018-04-24T06:09:06.094Z,10.30
2018-04-24T06:11:34.632Z,8.60
2018-04-24T06:14:03.191Z,9.27
2018-04-24T06:16:32.611Z,10.10
2018-04-24T06:19:01.171Z,9.47
2018-04-24T06:21:29.847Z,9.70
2018-04-24T06:23:58.418Z,9.50
2018-04-24T06:26:27.126Z,10.27
2018-04-24T06:28:55.787Z,9.33
2018-04-24T06:31:24.930Z,10.57
2018-04-24T06:33:53.460Z,9.70
2018-04-24T06:36:22.267Z,10.70
2018-04-24T06:38:51.208Z,10.50
2018-04-24T06:41:20.056Z,10.50
2018-04-24T06:43:48.931Z,10.20
2018-04-24T06:46:17.631Z,10.43
2018-04-24T06:48:46.600Z,8.87
2018-04-24T06:51:15.202Z,9.87
2018-04-24T06:53:43.716Z,11.03
2018-04-24T06:56:12.234Z,10.37
2018-04-24T06:58:40.906Z,11.00
2018-04-24T07:01:09.433Z,11.07
2018-04-24T07:03:37.956Z,10.37
2018-04-24T07:06:06.972Z,10.80
2018-04-24T07:08:35.563Z,11.40
2018-04-24T07:11:04.095Z,10.30
2018-04-24T07:13:32.627Z,9.80
2018-04-24T07:16:01.204Z,10.40
2018-04-24T07:18:29.925Z,11.40
2018-04-24T07:21:02.648Z,10.60
2018-04-24T07:23:35.674Z,10.60
2018-04-24T07:26:05.777Z,11.40
2018-04-24T07:28:35.762Z,11.17
2018-04-24T07:31:04.359Z,12.13
2018-04-24T07:33:32.868Z,11.80
2018-04-24T07:36:01.423Z,13.20
2018-04-24T07:38:30.031Z,13.80
2018-04-24T07:40:58.761Z,12.10
2018-04-24T07:43:27.448Z,12.87
2018-04-24T07:45:56.154Z,12.20
2018-04-24T07:48:24.783Z,12.70
2018-04-24T07:50:53.492Z,12.73
2018-04-24T07:53:22.375Z,12.77
2018-04-24T07:55:51.072Z,13.77
2018-04-24T07:58:20.115Z,14.53
2018-04-24T08:00:48.840Z,16.80
2018-04-24T08:03:17.416Z,16.50
2018-04-24T08:05:45.943Z,17.30
2018-04-24T08:08:14.470Z,18.00
2018-04-24T08:10:43.048Z,18.43
2018-04-24T08:13:11.710Z,18.03
2018-04-24T08:15:40.348Z,18.90
2018-04-24T08:18:08.990Z,19.77
2018-04-24T08:20:37.627Z,18.23
2018-04-24T08:23:06.171Z,17.83
2018-04-24T08:25:34.934Z,17.10
2018-04-24T08:28:03.447Z,17.20
2018-04-24T08:30:32.031Z,16.80
2018-04-24T08:33:00.510Z,16.43
2018-04-24T08:35:29.055Z,13.87
2018-04-24T08:37:57.526Z,11.60
2018-04-24T08:40:26.064Z,11.13
2018-04-24T08:42:54.641Z,11.60
2018-04-24T08:45:23.371Z,11.77
2018-04-24T08:47:51.906Z,11.17
2018-04-24T08:50:20.466Z,13.10
2018-04-24T08:52:56.244Z,11.80
2018-04-24T08:55:24.787Z,10.90
2018-04-24T08:57:53.271Z,10.97
2018-04-24T09:00:21.845Z,9.93
2018-04-24T09:02:50.474Z,9.67
2018-04-24T09:05:19.890Z,5.60
2018-04-24T09:07:48.369Z,5.40
2018-04-24T09:10:16.955Z,5.20
2018-04-24T09:12:45.453Z,6.10
2018-04-24T09:15:14.021Z,6.40
2018-04-24T09:17:49.411Z,5.87
2018-04-24T09:20:17.948Z,7.33
2018-04-24T09:22:46.529Z,7.70
2018-04-24T09:25:15.077Z,6.57
2018-04-24T09:27:43.679Z,7.40
2018-04-24T09:30:12.224Z,7.20
2018-04-24T09:32:40.879Z,6.20
2018-04-24T09:35:20.564Z,7.30
2018-04-24T09:37:49.085Z,7.77
2018-04-24T09:40:17.603Z,8.90
2018-04-24T09:42:46.110Z,7.10
2018-04-24T09:45:14.835Z,7.40
2018-04-24T09:47:43.480Z,6.37
2018-04-24T09:50:12.326Z,6.87
2018-04-24T09:52:42.081Z,6.50
2018-04-24T09:55:10.783Z,7.57
2018-04-24T09:57:39.375Z,8.00
2018-04-24T10:00:07.987Z,8.80
2018-04-24T10:02:36.531Z,8.63
2018-04-24T10:05:05.264Z,8.40
2018-04-24T10:07:33.764Z,9.03
2018-04-24T10:10:02.862Z,8.77
2018-04-24T10:12:31.412Z,9.20
2018-04-24T10:15:00.179Z,9.10
2018-04-24T10:17:28.875Z,8.40
2018-04-24T10:19:57.579Z,8.87
2018-04-24T10:22:26.376Z,9.00
2018-04-24T10:24:55.024Z,9.17
2018-04-24T10:27:23.611Z,9.37
2018-04-24T10:29:52.287Z,9.43
2018-04-24T10:32:21.005Z,9.83
2018-04-24T10:34:49.718Z,9.57
2018-04-24T10:37:18.333Z,10.77
2018-04-24T10:39:46.908Z,9.60
2018-04-24T10:42:15.533Z,9.73
2018-04-24T10:44:44.194Z,9.43
2018-04-24T10:47:12.740Z,8.40
2018-04-24T10:49:41.409Z,9.33
2018-04-24T10:52:10.493Z,8.20
2018-04-24T10:54:39.806Z,8.00
2018-04-24T10:57:08.484Z,9.07
2018-04-24T10:59:37.135Z,10.37
2018-04-24T11:02:05.665Z,8.50
2018-04-24T11:04:34.203Z,9.30
2018-04-24T11:07:03.268Z,8.30
2018-04-24T11:09:31.954Z,8.70
2018-04-24T11:12:00.472Z,10.07
2018-04-24T11:14:29.044Z,8.93
2018-04-24T11:16:57.748Z,9.10
2018-04-24T11:19:26.613Z,10.43
2018-04-24T11:21:55.187Z,9.70
2018-04-24T11:24:24.418Z,9.57
2018-04-24T11:26:53.125Z,10.20
2018-04-24T11:29:21.651Z,9.73
2018-04-24T11:31:50.280Z,9.90
2018-04-24T11:34:19.021Z,9.03
2018-04-24T11:36:47.565Z,9.07
2018-04-24T11:39:16.058Z,9.20
2018-04-24T11:41:44.581Z,7.60
2018-04-24T11:44:13.326Z,7.30
2018-04-24T11:46:42.079Z,6.80
2018-04-24T11:49:11.145Z,8.10
2018-04-24T11:51:39.805Z,8.13
2018-04-24T11:54:08.612Z,8.60
2018-04-24T11:56:37.138Z,8.80
2018-04-24T11:59:05.895Z,9.57
2018-04-24T12:01:34.417Z,8.87
2018-04-24T12:04:02.984Z,9.23
2018-04-24T12:06:31.536Z,7.17
2018-04-24T12:09:00.033Z,6.00
2018-04-24T12:11:28.556Z,5.80
2018-04-24T12:13:57.288Z,4.23
2018-04-24T12:16:25.996Z,4.13
2018-04-24T12:18:54.680Z,3.30
2018-04-24T12:21:23.368Z,3.33
2018-04-24T12:23:52.044Z,3.10
2018-04-24T12:26:26.328Z,3.00
2018-04-24T12:28:56.491Z,3.50
2018-04-24T12:31:28.721Z,3.20
2018-04-24T12:33:58.453Z,3.57
2018-04-24T12:36:27.159Z,3.30
2018-04-24T12:38:56.070Z,3.73
2018-04-24T12:41:25.148Z,3.80
2018-04-24T12:43:53.668Z,3.63
2018-04-24T12:46:22.183Z,3.70
2018-04-24T12:48:52.059Z,4.50
2018-04-24T12:51:21.542Z,3.90
2018-04-24T12:53:51.843Z,4.43
2018-04-24T12:56:22.795Z,4.03
2018-04-24T12:58:51.328Z,4.10
2018-04-24T13:01:19.923Z,3.93
2018-04-24T13:03:49.020Z,4.40
2018-04-24T13:06:17.532Z,4.30
2018-04-24T13:08:46.179Z,4.17
2018-04-24T13:11:15.122Z,4.17
2018-04-24T13:13:43.979Z,4.30
2018-04-24T13:16:12.708Z,3.70
2018-04-24T13:18:41.475Z,4.13
2018-04-24T13:21:10.379Z,4.13
2018-04-24T13:23:39.122Z,4.20
2018-04-24T13:26:07.853Z,4.70
2018-04-24T13:28:36.397Z,4.20
2018-04-24T13:31:04.972Z,4.37
2018-04-24T13:33:33.565Z,4.20
2018-04-24T13:36:02.152Z,4.10
2018-04-24T13:38:30.875Z,4.50
2018-04-24T13:41:00.604Z,5.27
2018-04-24T13:43:29.774Z,4.90
2018-04-24T13:45:58.563Z,5.40
2018-04-24T13:48:27.431Z,5.27
2018-04-24T13:50:56.220Z,5.60
2018-04-24T13:53:25.047Z,5.53
2018-04-24T13:55:53.716Z,5.53
2018-04-24T13:58:22.200Z,5.73
2018-04-24T14:00:50.828Z,5.10
2018-04-24T14:03:19.362Z,6.23
2018-04-24T14:05:47.950Z,5.87
2018-04-24T14:08:16.648Z,4.83
2018-04-24T14:10:45.421Z,5.70
2018-04-24T14:13:13.934Z,5.87
2018-04-24T14:15:42.786Z,5.53
2018-04-24T14:18:11.293Z,5.40
2018-04-24T14:20:39.963Z,6.13
2018-04-24T14:23:08.568Z,4.90
2018-04-24T14:25:37.113Z,5.23
2018-04-24T14:28:05.782Z,5.30
2018-04-24T14:30:35.675Z,6.27
2018-04-24T14:33:04.410Z,5.53
2018-04-24T14:35:33.103Z,6.07
2018-04-24T14:38:01.584Z,6.00
2018-04-24T14:40:30.293Z,6.17
2018-04-24T14:42:59.025Z,6.23
2018-04-24T14:45:27.679Z,5.93
2018-04-24T14:47:56.555Z,6.80
2018-04-24T14:50:25.215Z,6.80
2018-04-24T14:52:54.050Z,7.10
2018-04-24T14:55:22.607Z,6.40
2018-04-24T14:57:51.151Z,7.43
2018-04-24T15:00:19.833Z,6.63
2018-04-24T15:02:48.655Z,6.23
2018-04-24T15:05:17.533Z,6.90
2018-04-24T15:07:46.070Z,6.90
2018-04-24T15:10:14.887Z,6.80
2018-04-24T15:12:43.555Z,7.37
2018-04-24T15:15:12.115Z,7.83
2018-04-24T15:17:40.843Z,7.27
2018-04-24T15:20:09.469Z,7.37
2018-04-24T15:22:38.253Z,8.07
2018-04-24T15:25:07.221Z,8.13
2018-04-24T15:27:35.875Z,8.27
2018-04-24T15:30:04.961Z,7.90
2018-04-24T15:32:33.739Z,8.57
2018-04-24T15:35:02.333Z,7.40
2018-04-24T15:37:31.482Z,8.40
2018-04-24T15:40:00.387Z,8.40
2018-04-24T15:42:28.966Z,8.83
2018-04-24T15:44:58.139Z,8.20
2018-04-24T15:47:26.864Z,8.80
2018-04-24T15:49:55.519Z,8.90
2018-04-24T15:52:24.104Z,8.40
2018-04-24T15:54:52.781Z,8.30
2018-04-24T15:57:21.574Z,8.77
2018-04-24T15:59:50.459Z,7.63
2018-04-24T16:02:19.363Z,8.40
2018-04-24T16:04:48.310Z,8.80
2018-04-24T16:07:16.931Z,7.90
2018-04-24T16:09:46.467Z,6.90
2018-04-24T16:12:15.449Z,8.03
2018-04-24T16:14:44.208Z,7.70
2018-04-24T16:17:13.304Z,8.40
2018-04-24T16:19:42.076Z,7.27
2018-04-24T16:22:10.608Z,8.10
2018-04-24T16:24:39.343Z,7.40
2018-04-24T16:27:08.243Z,6.90
2018-04-24T16:29:36.892Z,6.90
2018-04-24T16:32:05.496Z,7.30
2018-04-24T16:34:34.075Z,7.87
2018-04-24T16:37:02.623Z,7.60
2018-04-24T16:39:31.366Z,6.80
2018-04-24T16:41:59.945Z,7.30
2018-04-24T16:44:28.821Z,6.80
2018-04-24T16:46:57.948Z,7.67
2018-04-24T16:49:26.468Z,7.27
2018-04-24T16:51:55.126Z,7.27
2018-04-24T16:54:24.030Z,7.27
2018-04-24T16:56:53.370Z,6.93
2018-04-24T16:59:22.367Z,6.87
2018-04-24T17:01:51.280Z,7.40
2018-04-24T17:04:19.794Z,6.50
2018-04-24T17:09:48.929Z,6.43
2018-04-24T17:12:18.153Z,7.20
2018-04-24T17:14:47.167Z,6.60
2018-04-24T17:17:15.776Z,6.10
2018-04-24T17:19:44.370Z,6.60
2018-04-24T17:22:13.297Z,6.90
2018-04-24T17:24:43.007Z,7.17
2018-04-24T17:27:11.858Z,7.00
2018-04-24T17:29:40.520Z,7.70
2018-04-24T17:32:09.428Z,6.60
2018-04-24T17:34:38.014Z,7.03
2018-04-24T17:37:06.574Z,6.80
2018-04-24T17:39:35.452Z,8.03
2018-04-24T17:42:03.981Z,7.13
2018-04-24T17:44:33.639Z,7.40
2018-04-24T17:47:02.761Z,7.50
2018-04-24T17:49:32.199Z,7.00
2018-04-24T17:52:01.506Z,6.97
2018-04-24T17:54:30.237Z,6.10
2018-04-24T17:56:59.786Z,6.90
2018-04-24T17:59:28.845Z,6.80
2018-04-24T18:01:57.606Z,6.97
2018-04-24T18:04:26.753Z,6.63
2018-04-24T18:06:56.327Z,6.77
2018-04-24T18:09:24.898Z,6.57
2018-04-24T18:11:53.928Z,5.97
2018-04-24T18:14:22.714Z,6.80
2018-04-24T18:16:51.238Z,6.13
2018-04-24T18:19:19.847Z,6.47
2018-04-24T18:21:48.595Z,5.90
2018-04-24T18:24:17.415Z,6.43
2018-04-24T18:26:46.391Z,6.40
2018-04-24T18:29:14.909Z,6.83
2018-04-24T18:31:43.640Z,6.13
2018-04-24T18:34:13.292Z,6.97
2018-04-24T18:36:41.872Z,6.50
2018-04-24T18:39:10.775Z,6.57
2018-04-24T18:41:40.403Z,6.50
2018-04-24T18:44:10.280Z,7.10
2018-04-24T18:46:39.811Z,6.80
2018-04-24T18:49:08.328Z,6.40
2018-04-24T18:51:37.984Z,6.87
2018-04-24T18:54:08.181Z,6.80
2018-04-24T18:56:37.459Z,7.40
2018-04-24T18:59:06.154Z,7.37
2018-04-24T19:01:34.828Z,7.07
2018-04-24T19:04:03.493Z,7.03
2018-04-24T19:06:32.237Z,7.53
2018-04-24T19:09:01.974Z,7.17
2018-04-24T19:11:33.690Z,7.97
2018-04-24T19:14:06.448Z,7.77
2018-04-24T19:16:35.907Z,7.43
2018-04-24T19:19:08.868Z,8.10
2018-04-24T19:21:37.545Z,8.20
2018-04-24T19:24:06.194Z,7.70
2018-04-24T19:26:35.651Z,7.60
2018-04-24T19:29:07.253Z,9.07
2018-04-24T19:31:40.168Z,7.67
2018-04-24T19:34:09.946Z,8.90
2018-04-24T19:36:38.622Z,7.90
2018-04-24T19:39:11.391Z,8.20
2018-04-24T19:42:39.199Z,9.50
2018-04-24T19:45:08.973Z,9.20
2018-04-24T19:47:37.831Z,8.17
2018-04-24T19:50:25.406Z,8.87
2018-04-24T19:52:55.211Z,8.63
2018-04-24T19:55:26.836Z,8.57
2018-04-24T19:57:56.325Z,8.23
2018-04-24T20:00:25.744Z,8.33
2018-04-24T20:02:57.055Z,9.23
2018-04-24T20:05:26.967Z,8.53
2018-04-24T20:07:55.792Z,8.40
2018-04-24T20:10:24.291Z,8.30
2018-04-24T20:12:53.720Z,8.93
2018-04-24T20:15:22.564Z,8.63
2018-04-24T20:17:51.836Z,10.07
2018-04-24T20:20:20.897Z,9.20
2018-04-24T20:22:50.061Z,9.07
2018-04-24T20:25:19.082Z,9.80
2018-04-24T20:27:48.047Z,9.63
2018-04-24T20:30:17.390Z,9.27
2018-04-24T20:32:46.034Z,9.90
2018-04-24T20:35:14.706Z,9.60
2018-04-24T20:37:43.783Z,9.10
2018-04-24T20:40:12.482Z,9.43
2018-04-24T20:42:41.299Z,9.37
2018-04-24T20:45:10.606Z,10.20
2018-04-24T20:47:40.124Z,10.40
2018-04-24T20:50:12.702Z,10.23
2018-04-24T20:52:44.619Z,9.83
2018-04-24T20:55:14.130Z,10.57
2018-04-24T20:57:45.683Z,9.97
2018-04-24T21:00:16.551Z,10.43
2018-04-24T21:02:45.132Z,10.83
2018-04-24T21:05:15.311Z,10.43
2018-04-24T21:07:43.828Z,10.93
2018-04-24T21:10:13.506Z,10.50
2018-04-24T21:12:42.096Z,10.60
2018-04-24T21:15:11.027Z,11.53
2018-04-24T21:17:39.924Z,11.53
2018-04-24T21:20:09.507Z,10.80
2018-04-24T21:22:41.761Z,10.87
2018-04-24T21:25:11.527Z,11.03
2018-04-24T21:27:40.539Z,12.23
2018-04-24T21:30:09.146Z,11.50
2018-04-24T21:32:37.767Z,12.73
2018-04-24T21:35:06.701Z,12.03
2018-04-24T21:37:36.377Z,12.20
2018-04-24T21:40:05.145Z,12.27
2018-04-24T21:42:34.455Z,13.30
2018-04-24T21:45:04.000Z,13.80
2018-04-24T21:47:36.231Z,13.90
2018-04-24T21:50:06.600Z,15.80
2018-04-24T21:52:35.219Z,15.23
2018-04-24T21:55:03.947Z,15.73
2018-04-24T21:57:36.259Z,14.40
2018-04-24T22:00:06.431Z,12.67
2018-04-24T22:02:35.306Z,12.50
2018-04-24T22:05:04.914Z,12.60
2018-04-24T22:07:33.666Z,12.43
2018-04-24T22:10:02.560Z,13.70
2018-04-24T22:12:31.011Z,13.03
2018-04-24T22:14:59.551Z,13.07
2018-04-24T22:17:28.251Z,13.43
2018-04-24T22:19:56.647Z,13.37
2018-04-24T22:22:25.161Z,13.33
2018-04-24T22:24:53.631Z,15.73
2018-04-24T22:27:22.128Z,13.67
2018-04-24T22:29:50.799Z,12.87
2018-04-24T22:32:19.643Z,12.73
2018-04-24T22:34:48.388Z,13.57
2018-04-24T22:37:16.914Z,12.50
2018-04-24T22:39:45.555Z,12.77
2018-04-24T22:42:14.985Z,13.90
2018-04-24T22:44:44.375Z,13.43
2018-04-24T22:47:13.608Z,14.83
2018-04-24T22:49:42.073Z,14.67
2018-04-24T22:52:10.730Z,14.50
2018-04-24T22:54:39.351Z,14.30
2018-04-24T22:57:08.067Z,14.90
2018-04-24T22:59:36.516Z,15.23
2018-04-24T23:02:05.233Z,15.93
2018-04-24T23:04:33.949Z,13.90
2018-04-24T23:07:03.140Z,16.60
2018-04-24T23:09:31.975Z,15.33
2018-04-24T23:12:11.861Z,14.90
2018-04-24T23:14:52.459Z,14.73
2018-04-24T23:17:32.292Z,15.30
2018-04-24T23:20:12.291Z,16.43
2018-04-24T23:22:41.996Z,17.57
2018-04-24T23:25:11.790Z,16.00
2018-04-24T23:27:40.988Z,16.30
2018-04-24T23:30:09.479Z,16.50
2018-04-24T23:32:38.096Z,16.97
2018-04-24T23:35:06.852Z,17.67
2018-04-24T23:37:35.492Z,17.43
2018-04-24T23:40:04.015Z,15.50
2018-04-24T23:42:32.873Z,16.60
2018-04-24T23:45:01.615Z,18.27
2018-04-24T23:47:30.073Z,18.23
2018-04-24T23:49:58.734Z,19.93
2018-04-24T23:52:27.693Z,19.10
2018-04-24T23:54:56.292Z,20.37
2018-04-24T23:57:24.784Z,21.10
2018-04-24T23:59:53.323Z,20.60
